Time;durP1;ratioP1;P1;durP2;ratioP2;P2;SDS_P1;SDS_P2;PMS_P1;PMS_P2;Temp;Humidity;BMP_temperature;BMP_pressure;BME280_temperature;BME280_humidity;BME280_pressure;Samples;Min_cycle;Max_cycle;Signal;HPM_P1;HPM_P2
2021/07/22 00:00:22;;;;;;;14.02;9.77;;;;;;;21.52;43.67;100056.69;5049299;28;20036;-22
2021/07/22 00:02:51;;;;;;;12.40;8.40;;;;;;;21.79;43.15;100066.09;5031407;28;20091;-22
2021/07/22 00:05:17;;;;;;;13.25;8.73;;;;;;;21.70;43.07;100056.97;5049534;28;20052;-22
2021/07/22 00:07:45;;;;;;;11.98;7.95;;;;;;;21.88;43.16;100080.59;5031394;28;20033;-22
2021/07/22 00:10:11;;;;;;;13.93;8.57;;;;;;;21.70;43.58;100067.84;5049535;28;20033;-22
2021/07/22 00:12:37;;;;;;;13.10;8.95;;;;;;;21.97;43.01;100080.78;5049147;28;20048;-22
2021/07/22 00:15:03;;;;;;;14.70;9.57;;;;;;;21.65;43.63;100076.88;5049114;28;20408;-22
2021/07/22 00:17:29;;;;;;;16.13;10.10;;;;;;;21.70;43.71;100076.81;5049674;28;20037;-22
2021/07/22 00:19:54;;;;;;;15.82;9.55;;;;;;;21.63;44.03;100079.06;5031178;28;20033;-22
2021/07/22 00:22:20;;;;;;;16.40;10.15;;;;;;;21.58;44.53;100073.72;5049203;28;20044;-22
2021/07/22 00:24:45;;;;;;;17.92;10.48;;;;;;;21.71;44.18;100088.47;5048926;28;20032;-22
2021/07/22 00:27:15;;;;;;;15.20;10.00;;;;;;;22.00;43.56;100082.88;5049109;28;20032;-22
2021/07/22 00:29:40;;;;;;;14.15;9.60;;;;;;;22.13;44.32;100076.72;5049046;28;20039;-22
2021/07/22 00:32:06;;;;;;;11.70;8.63;;;;;;;22.14;43.73;100078.31;5048838;28;20029;-22
2021/07/22 00:34:32;;;;;;;13.30;9.18;;;;;;;22.34;43.88;100085.38;5048654;28;20542;-22
2021/07/22 00:36:57;;;;;;;13.05;9.65;;;;;;;21.86;44.32;100078.19;5049195;28;20033;-22
2021/07/22 00:39:23;;;;;;;13.52;9.32;;;;;;;22.01;45.47;100084.50;5049305;28;20032;-24
2021/07/22 00:41:48;;;;;;;44.55;12.52;;;;;;;22.02;44.45;100078.75;5049179;28;20429;-24
2021/07/22 00:44:14;;;;;;;13.18;9.23;;;;;;;21.95;44.41;100067.47;5048882;28;20021;-24
2021/07/22 00:46:39;;;;;;;13.43;9.48;;;;;;;21.86;45.07;100082.81;5048538;28;20033;-25
2021/07/22 00:49:09;;;;;;;15.38;9.57;;;;;;;21.80;45.16;100078.56;4997559;28;20068;-25
2021/07/22 00:51:34;;;;;;;14.15;9.93;;;;;;;21.81;45.62;100082.88;5048685;28;20806;-25
2021/07/22 00:54:00;;;;;;;15.00;10.38;;;;;;;21.73;45.71;100078.91;5048108;28;20040;-25
2021/07/22 00:56:25;;;;;;;13.50;9.77;;;;;;;21.56;45.75;100079.44;5048378;28;20400;-24
2021/07/22 00:58:51;;;;;;;16.70;10.60;;;;;;;21.60;45.89;100082.38;5048611;28;20036;-24
2021/07/22 01:01:16;;;;;;;13.60;10.05;;;;;;;21.43;46.33;100072.00;5048712;28;20044;-24
2021/07/22 01:03:44;;;;;;;13.55;9.60;;;;;;;21.12;47.26;100083.19;5048326;28;20420;-25
2021/07/22 01:06:09;;;;;;;15.20;10.88;;;;;;;21.22;47.56;100072.22;5048354;28;20021;-24
2021/07/22 01:08:35;;;;;;;14.48;9.18;;;;;;;20.91;48.35;100085.31;5048538;28;20036;-25
2021/07/22 01:11:01;;;;;;;12.15;9.38;;;;;;;21.11;47.33;100075.38;5048194;28;20029;-24
2021/07/22 01:13:27;;;;;;;16.23;10.02;;;;;;;21.11;46.83;100068.03;5048025;28;20035;-22
2021/07/22 01:15:52;;;;;;;13.77;10.10;;;;;;;21.26;46.57;100081.38;5048031;28;20033;-22
2021/07/22 01:18:18;;;;;;;14.45;9.75;;;;;;;21.16;47.17;100081.50;5030090;28;20037;-22
2021/07/22 01:20:43;;;;;;;16.88;9.68;;;;;;;21.39;47.29;100071.75;5047673;28;20033;-22
2021/07/22 01:23:08;;;;;;;12.70;9.13;;;;;;;21.13;46.91;100082.09;5047957;28;20028;-21
2021/07/22 01:25:34;;;;;;;15.93;10.23;;;;;;;21.25;47.17;100073.56;5047928;28;20090;-22
2021/07/22 01:27:59;;;;;;;17.52;10.25;;;;;;;21.12;47.14;100074.25;5047916;28;20029;-22
2021/07/22 01:30:25;;;;;;;16.50;11.25;;;;;;;21.07;47.77;100073.22;5048034;28;20040;-21
2021/07/22 01:32:52;;;;;;;17.83;11.43;;;;;;;20.94;47.83;100073.09;5047710;28;20033;-22
2021/07/22 01:35:18;;;;;;;18.50;10.48;;;;;;;20.74;48.54;100069.50;5048183;28;20059;-22
2021/07/22 01:37:43;;;;;;;15.32;9.50;;;;;;;20.43;48.91;100047.28;5047703;28;20416;-22
2021/07/22 01:40:10;;;;;;;17.70;11.93;;;;;;;20.70;48.67;100089.31;5047718;28;20029;-22
2021/07/22 01:42:36;;;;;;;15.55;10.30;;;;;;;20.63;49.40;100084.25;5048004;28;20036;-22
2021/07/22 01:45:03;;;;;;;17.20;9.63;;;;;;;20.55;49.54;100099.16;5030223;28;20037;-21
2021/07/22 01:47:29;;;;;;;13.38;9.75;;;;;;;20.43;49.94;100106.84;5047593;28;20144;-22
2021/07/22 01:49:54;;;;;;;14.38;9.38;;;;;;;20.44;49.14;100094.94;5047326;28;20041;-21
2021/07/22 01:52:20;;;;;;;13.57;9.60;;;;;;;20.71;48.69;100091.75;5047466;28;20036;-21
2021/07/22 01:54:45;;;;;;;15.77;10.05;;;;;;;20.22;49.26;100054.78;5046903;28;20036;-23
2021/07/22 01:57:11;;;;;;;18.75;11.95;;;;;;;20.80;49.04;100090.03;5047314;28;20473;-23
2021/07/22 01:59:36;;;;;;;14.45;9.68;;;;;;;20.76;48.81;100105.25;5047338;28;20029;-23
2021/07/22 02:02:08;;;;;;;15.88;9.95;;;;;;;20.65;49.67;100101.03;5047192;28;20094;-23
2021/07/22 02:04:34;;;;;;;15.50;10.25;;;;;;;20.62;49.34;100112.44;5047184;28;20033;-23
2021/07/22 02:07:00;;;;;;;14.65;9.35;;;;;;;20.51;49.59;100108.97;5028497;28;20033;-23
2021/07/22 02:09:25;;;;;;;13.95;9.63;;;;;;;20.79;49.19;100104.69;5047085;28;20406;-23
2021/07/22 02:11:51;;;;;;;16.60;9.65;;;;;;;21.09;47.37;100112.81;5047144;28;20033;-23
2021/07/22 02:14:17;;;;;;;17.05;9.88;;;;;;;20.90;49.22;100107.28;5046986;28;20041;-23
2021/07/22 02:16:42;;;;;;;16.35;9.32;;;;;;;20.83;48.61;100111.13;5046796;28;20043;-23
2021/07/22 02:19:08;;;;;;;15.38;9.32;;;;;;;20.76;48.80;100109.84;5047191;28;20040;-23
2021/07/22 02:21:34;;;;;;;16.58;9.80;;;;;;;20.84;48.83;100106.53;5047073;28;20481;-23
2021/07/22 02:24:00;;;;;;;17.40;9.63;;;;;;;20.86;49.06;100110.59;5046907;28;20063;-22
2021/07/22 02:26:25;;;;;;;13.80;10.00;;;;;;;20.92;49.13;100105.09;5047073;28;20032;-23
2021/07/22 02:28:51;;;;;;;14.93;9.48;;;;;;;20.99;48.91;100124.56;5046975;28;20032;-24
2021/07/22 02:31:17;;;;;;;16.20;10.07;;;;;;;20.89;49.37;100114.63;5046800;28;20029;-23
2021/07/22 02:33:42;;;;;;;44.38;13.13;;;;;;;20.77;49.38;100128.53;5046921;28;20036;-23
2021/07/22 02:36:08;;;;;;;18.92;10.40;;;;;;;20.73;49.52;100126.69;5047436;28;20794;-23
2021/07/22 02:38:34;;;;;;;15.88;10.10;;;;;;;21.13;48.57;100124.69;5046603;28;20029;-23
2021/07/22 02:40:59;;;;;;;14.27;9.50;;;;;;;20.99;49.09;100114.50;5046808;28;20524;-23
2021/07/22 02:43:24;;;;;;;14.70;10.40;;;;;;;21.01;48.79;100116.94;5046851;28;20106;-23
2021/07/22 02:45:50;;;;;;;17.08;10.07;;;;;;;21.13;49.00;100119.28;5046934;28;20033;-23
2021/07/22 02:48:15;;;;;;;14.73;9.50;;;;;;;20.96;48.94;100133.25;5046856;28;20122;-23
2021/07/22 02:50:42;;;;;;;19.10;10.32;;;;;;;21.05;49.60;100124.22;5046293;28;20064;-23
2021/07/22 02:53:08;;;;;;;16.02;9.25;;;;;;;20.91;49.76;100106.22;5046627;28;20050;-23
2021/07/22 02:55:33;;;;;;;15.38;8.98;;;;;;;21.25;47.94;100125.91;5046892;28;20382;-23
2021/07/22 02:58:05;;;;;;;16.60;10.57;;;;;;;21.26;47.58;100122.06;5046703;28;20025;-23
2021/07/22 03:00:31;;;;;;;22.00;9.90;;;;;;;20.91;49.19;100106.22;5046293;28;20048;-23
2021/07/22 03:03:01;;;;;;;16.02;9.95;;;;;;;20.43;51.09;100096.03;5046642;28;20040;-23
2021/07/22 03:05:30;;;;;;;14.25;9.20;;;;;;;20.43;50.96;100129.34;5046624;28;20029;-23
2021/07/22 03:07:58;;;;;;;31.48;11.63;;;;;;;20.37;50.92;100124.25;5046489;28;20067;-23
2021/07/22 03:10:24;;;;;;;19.38;12.18;;;;;;;20.07;51.50;100121.47;5028695;28;20082;-23
2021/07/22 03:12:49;;;;;;;17.80;10.65;;;;;;;19.84;52.78;100136.50;5046556;28;20447;-23
2021/07/22 03:15:15;;;;;;;19.98;10.77;;;;;;;20.09;52.51;100128.53;5046495;28;20041;-23
2021/07/22 03:17:40;;;;;;;14.57;10.68;;;;;;;20.33;51.08;100137.56;5047248;28;20098;-23
2021/07/22 03:20:06;;;;;;;19.67;10.23;;;;;;;20.48;51.54;100134.72;5032458;28;20029;-23
2021/07/22 03:22:32;;;;;;;20.35;10.80;;;;;;;20.46;51.04;100141.53;5050095;28;20037;-23
2021/07/22 03:24:57;;;;;;;21.52;10.32;;;;;;;20.14;52.08;100144.72;5050139;28;20036;-23
2021/07/22 03:27:23;;;;;;;22.10;9.80;;;;;;;20.45;51.96;100159.69;5050276;28;20086;-23
2021/07/22 03:29:48;;;;;;;18.23;10.07;;;;;;;20.24;51.88;100156.28;5050073;28;20040;-23
2021/07/22 03:32:14;;;;;;;16.92;10.68;;;;;;;20.47;51.49;100162.91;5049057;28;20392;-23
2021/07/22 03:34:39;;;;;;;17.10;10.52;;;;;;;20.64;50.76;100149.00;5048453;28;20029;-23
2021/07/22 03:37:05;;;;;;;17.70;10.13;;;;;;;20.57;51.14;100158.50;5049971;28;20033;-23
2021/07/22 03:39:30;;;;;;;18.60;10.45;;;;;;;20.59;51.43;100148.22;5050069;28;20068;-23
2021/07/22 03:41:56;;;;;;;20.00;11.07;;;;;;;20.46;51.34;100144.22;5049910;28;20029;-23
2021/07/22 03:44:21;;;;;;;15.07;10.00;;;;;;;20.53;51.71;100155.53;5048539;28;20036;-23
2021/07/22 03:46:47;;;;;;;19.90;11.23;;;;;;;20.60;51.34;100160.69;5049674;28;20033;-23
2021/07/22 03:49:12;;;;;;;16.95;10.93;;;;;;;20.12;51.91;100160.44;5049696;28;20059;-23
2021/07/22 03:51:37;;;;;;;16.17;10.70;;;;;;;19.89;52.81;100156.50;5049596;28;20492;-23
2021/07/22 03:54:06;;;;;;;21.17;11.50;;;;;;;20.02;52.78;100167.53;5049728;28;20032;-23
2021/07/22 03:56:33;;;;;;;18.98;10.43;;;;;;;20.47;51.73;100168.34;5049384;28;20104;-23
2021/07/22 03:58:58;;;;;;;18.20;11.10;;;;;;;20.57;51.69;100172.03;5049342;28;20118;-23
2021/07/22 04:01:24;;;;;;;16.48;10.57;;;;;;;20.39;52.24;100176.22;5049660;28;20485;-23
2021/07/22 04:03:50;;;;;;;20.70;11.23;;;;;;;20.21;53.01;100183.13;5049518;28;20029;-23
2021/07/22 04:06:15;;;;;;;18.55;10.88;;;;;;;20.31;53.01;100180.38;5049554;28;20025;-23
2021/07/22 04:08:41;;;;;;;16.50;10.85;;;;;;;19.93;54.39;100171.91;5049281;28;20033;-23
2021/07/22 04:11:06;;;;;;;15.95;10.90;;;;;;;19.75;55.05;100184.16;5049146;28;20037;-23
2021/07/22 04:13:32;;;;;;;18.60;10.70;;;;;;;19.81;55.04;100179.53;5049281;28;20048;-23
2021/07/22 04:16:04;;;;;;;20.90;11.23;;;;;;;19.80;54.81;100183.34;5049834;28;20029;-23
2021/07/22 04:18:30;;;;;;;24.25;11.80;;;;;;;20.19;53.50;100174.50;5049147;28;20110;-23
2021/07/22 04:20:55;;;;;;;25.80;13.30;;;;;;;20.69;52.30;100196.91;5049092;28;20111;-24
2021/07/22 04:23:21;;;;;;;28.05;13.65;;;;;;;21.13;51.51;100193.28;5049047;28;20055;-23
2021/07/22 04:25:46;;;;;;;24.63;13.05;;;;;;;21.32;50.79;100187.13;5049375;28;20103;-23
2021/07/22 04:28:12;;;;;;;20.55;12.10;;;;;;;21.19;50.67;100172.34;5049523;28;20029;-23
2021/07/22 04:30:38;;;;;;;20.75;12.63;;;;;;;21.34;51.38;100191.16;5047863;28;20083;-23
2021/07/22 04:33:04;;;;;;;20.70;12.50;;;;;;;21.37;50.96;100193.31;5048862;28;20039;-23
2021/07/22 04:35:30;;;;;;;23.13;12.02;;;;;;;21.40;50.85;100200.88;5049296;28;20359;-23
2021/07/22 04:37:55;;;;;;;21.02;11.65;;;;;;;21.75;49.78;100198.88;5049019;28;20033;-23
2021/07/22 04:40:21;;;;;;;19.75;12.20;;;;;;;22.01;49.37;100198.56;5048851;28;20849;-23
2021/07/22 04:42:46;;;;;;;22.63;11.73;;;;;;;21.97;49.60;100192.91;5048291;28;20418;-23
2021/07/22 04:45:13;;;;;;;21.85;11.45;;;;;;;22.08;49.23;100191.63;5048637;28;20033;-23
2021/07/22 04:47:38;;;;;;;17.00;10.90;;;;;;;21.86;48.77;100185.97;5048539;28;20024;-23
2021/07/22 04:50:04;;;;;;;17.80;11.40;;;;;;;21.56;49.44;100193.41;5048303;28;20160;-23
2021/07/22 04:52:30;;;;;;;17.73;10.85;;;;;;;21.50;49.15;100194.56;5048636;28;20029;-23
2021/07/22 04:54:55;;;;;;;15.30;10.80;;;;;;;21.85;49.33;100204.16;5048429;28;20079;-23
2021/07/22 04:57:21;;;;;;;18.13;11.30;;;;;;;21.73;48.93;100197.56;5048111;28;20083;-23
2021/07/22 04:59:46;;;;;;;17.92;11.23;;;;;;;21.93;49.55;100197.28;5048719;28;20504;-23
2021/07/22 05:02:12;;;;;;;16.60;10.25;;;;;;;22.15;49.14;100209.47;5048566;28;20037;-23
2021/07/22 05:04:37;;;;;;;14.90;10.55;;;;;;;22.23;48.67;100200.69;5048317;28;20033;-23
2021/07/22 05:07:04;;;;;;;23.65;12.15;;;;;;;22.55;47.87;100215.47;5048186;28;20044;-23
2021/07/22 05:09:30;;;;;;;18.38;10.73;;;;;;;22.82;47.07;100204.72;5048259;28;20535;-23
2021/07/22 05:11:55;;;;;;;17.92;10.43;;;;;;;22.81;46.33;100211.25;5048181;28;20116;-23
2021/07/22 05:14:21;;;;;;;15.27;10.40;;;;;;;22.69;47.03;100219.06;5048319;28;20029;-23
2021/07/22 05:16:46;;;;;;;15.55;10.85;;;;;;;22.41;47.15;100202.66;5048427;28;20094;-23
2021/07/22 05:19:13;;;;;;;84.63;53.35;;;;;;;22.45;48.29;100219.97;5047944;28;20048;-23
2021/07/22 05:21:38;;;;;;;19.02;11.55;;;;;;;21.90;49.07;100202.50;5048418;28;20036;-23
2021/07/22 05:24:04;;;;;;;19.35;11.38;;;;;;;22.17;48.96;100215.44;5047803;28;20032;-23
2021/07/22 05:26:30;;;;;;;19.42;13.07;;;;;;;22.25;48.85;100210.19;5047497;28;20458;-23
2021/07/22 05:28:55;;;;;;;18.05;11.75;;;;;;;21.90;49.81;100197.84;5048113;28;20044;-23
2021/07/22 05:31:20;;;;;;;20.40;11.25;;;;;;;22.39;48.61;100221.16;5047896;28;20028;-23
2021/07/22 05:33:46;;;;;;;20.27;12.65;;;;;;;22.48;47.63;100220.47;5047688;28;20476;-23
2021/07/22 05:36:11;;;;;;;17.38;10.98;;;;;;;22.34;48.11;100223.94;5047879;28;20036;-23
2021/07/22 05:38:37;;;;;;;17.05;10.45;;;;;;;22.43;48.36;100216.75;5047924;28;20036;-23
2021/07/22 05:41:03;;;;;;;18.50;12.20;;;;;;;22.73;47.38;100219.28;5047610;28;20087;-23
2021/07/22 05:43:29;;;;;;;17.77;10.18;;;;;;;22.72;46.51;100215.75;5047837;28;20029;-23
2021/07/22 05:45:55;;;;;;;14.40;10.63;;;;;;;23.00;46.61;100229.44;5047633;28;20040;-23
2021/07/22 05:48:20;;;;;;;19.55;11.20;;;;;;;23.45;45.98;100237.91;5047478;28;20068;-23
2021/07/22 05:50:46;;;;;;;16.83;9.90;;;;;;;23.21;45.34;100208.97;5029166;28;20061;-23
2021/07/22 05:53:12;;;;;;;17.30;10.93;;;;;;;23.52;45.97;100241.06;5047532;28;20823;-23
2021/07/22 05:55:37;;;;;;;16.27;10.93;;;;;;;23.78;45.59;100235.97;5047471;28;20104;-23
2021/07/22 05:58:03;;;;;;;16.35;10.23;;;;;;;23.87;44.34;100241.50;5047306;28;20408;-23
2021/07/22 06:00:28;;;;;;;17.50;10.77;;;;;;;23.85;43.92;100230.09;5047089;28;20029;-23
2021/07/22 06:02:54;;;;;;;20.08;11.80;;;;;;;24.13;44.83;100238.22;5047408;28;20024;-23
2021/07/22 06:05:19;;;;;;;15.52;11.02;;;;;;;24.09;43.91;100231.75;5047284;28;20036;-23
2021/07/22 06:07:46;;;;;;;16.13;9.98;;;;;;;24.14;43.41;100239.84;5047385;28;20166;-23
2021/07/22 06:10:14;;;;;;;19.85;11.02;;;;;;;23.93;43.55;100240.28;5047001;28;20037;-23
2021/07/22 06:12:43;;;;;;;22.83;12.05;;;;;;;24.07;43.58;100234.81;5047019;28;20029;-23
2021/07/22 06:15:11;;;;;;;17.30;10.88;;;;;;;24.64;42.71;100231.63;5047101;28;20055;-23
2021/07/22 06:17:37;;;;;;;17.35;12.70;;;;;;;24.10;43.98;100223.28;5047347;28;20492;-23
2021/07/22 06:20:06;;;;;;;16.02;10.80;;;;;;;24.12;42.64;100223.00;5046581;28;20037;-23
2021/07/22 06:22:32;;;;;;;17.83;11.15;;;;;;;23.94;43.51;100220.09;5046782;28;20025;-23
2021/07/22 06:24:57;;;;;;;17.42;10.55;;;;;;;24.01;44.35;100233.31;5046974;28;20872;-23
2021/07/22 06:27:23;;;;;;;17.25;10.57;;;;;;;23.87;44.53;100227.88;5046942;28;20021;-23
2021/07/22 06:29:48;;;;;;;18.60;11.50;;;;;;;24.00;45.07;100228.97;5047052;28;20566;-23
2021/07/22 06:32:14;;;;;;;15.75;10.40;;;;;;;24.14;44.21;100218.06;5047210;28;20029;-23
2021/07/22 06:34:39;;;;;;;13.63;9.77;;;;;;;24.26;44.17;100218.31;5046751;28;20029;-23
2021/07/22 06:37:05;;;;;;;18.08;11.40;;;;;;;24.11;45.32;100214.03;5046890;28;20032;-23
2021/07/22 06:39:32;;;;;;;15.73;10.30;;;;;;;24.06;44.19;100206.75;5047271;28;20040;-23
2021/07/22 06:42:03;;;;;;;18.55;10.05;;;;;;;24.37;44.31;100216.97;5046823;28;20460;-22
2021/07/22 06:44:29;;;;;;;14.82;9.77;;;;;;;24.57;44.32;100223.91;5046619;28;20029;-22
2021/07/22 06:46:55;;;;;;;13.50;9.40;;;;;;;24.77;42.97;100217.16;5047106;28;20090;-23
2021/07/22 06:49:20;;;;;;;12.75;8.43;;;;;;;24.95;42.52;100225.47;5046677;28;20053;-23
2021/07/22 06:51:48;;;;;;;13.18;9.23;;;;;;;25.12;40.38;100225.56;5046646;28;20037;-23
2021/07/22 06:54:13;;;;;;;15.02;10.98;;;;;;;25.13;42.32;100221.72;5049832;28;20463;-23
2021/07/22 06:56:39;;;;;;;11.63;8.65;;;;;;;24.96;42.37;100232.53;5050577;28;20029;-23
2021/07/22 06:59:04;;;;;;;13.75;8.98;;;;;;;24.92;41.66;100236.97;5050840;28;20810;-23
2021/07/22 07:01:30;;;;;;;20.20;9.60;;;;;;;25.42;42.78;100225.91;5050707;28;20377;-23
2021/07/22 07:03:55;;;;;;;15.65;9.88;;;;;;;25.40;42.12;100237.13;5050609;28;20032;-23
2021/07/22 07:06:20;;;;;;;13.85;8.85;;;;;;;25.00;41.60;100222.59;5050654;28;20098;-23
2021/07/22 07:08:46;;;;;;;11.55;7.13;;;;;;;24.84;41.49;100225.69;5050246;28;20086;-23
2021/07/22 07:11:11;;;;;;;12.05;7.70;;;;;;;24.94;40.30;100221.09;5050798;28;20385;-23
2021/07/22 07:13:37;;;;;;;11.57;7.80;;;;;;;25.37;40.11;100221.38;5051015;28;20025;-23
2021/07/22 07:16:06;;;;;;;13.68;8.40;;;;;;;25.88;39.90;100227.31;5050115;28;20029;-23
2021/07/22 07:18:31;;;;;;;11.80;8.15;;;;;;;25.11;40.85;100221.22;5050080;28;20511;-23
2021/07/22 07:20:57;;;;;;;11.68;8.52;;;;;;;25.16;41.62;100210.16;5050267;28;20033;-23
2021/07/22 07:23:22;;;;;;;11.63;7.65;;;;;;;25.46;39.47;100211.31;5050350;28;20040;-23
2021/07/22 07:25:48;;;;;;;13.27;7.75;;;;;;;25.87;40.21;100228.47;5050520;28;20397;-23
2021/07/22 07:28:13;;;;;;;12.48;8.13;;;;;;;26.26;39.11;100226.78;5050143;28;20041;-23
2021/07/22 07:30:38;;;;;;;12.35;7.95;;;;;;;26.02;38.70;100236.22;5049727;28;20091;-23
2021/07/22 07:33:04;;;;;;;10.10;6.70;;;;;;;25.85;38.65;100230.72;5049914;28;20036;-23
2021/07/22 07:35:30;;;;;;;12.23;7.22;;;;;;;25.95;39.12;100203.13;5049881;28;20499;-23
2021/07/22 07:37:56;;;;;;;10.68;6.10;;;;;;;26.50;36.10;100228.22;5050019;28;20040;-23
2021/07/22 07:40:21;;;;;;;9.70;6.35;;;;;;;26.69;37.19;100227.94;5050221;28;20149;-23
2021/07/22 07:42:47;;;;;;;13.48;6.43;;;;;;;26.94;36.36;100226.28;5049589;28;20083;-23
2021/07/22 07:45:12;;;;;;;9.50;6.30;;;;;;;26.39;37.31;100228.56;5050015;28;20381;-23
2021/07/22 07:47:38;;;;;;;10.40;6.72;;;;;;;26.13;37.14;100225.78;5049939;28;20033;-23
2021/07/22 07:50:04;;;;;;;11.70;6.25;;;;;;;26.58;38.00;100230.19;5049371;28;20115;-23
2021/07/22 07:52:30;;;;;;;9.48;6.13;;;;;;;26.88;36.91;100231.13;5049491;28;20098;-23
2021/07/22 07:54:56;;;;;;;11.70;6.60;;;;;;;27.04;37.38;100225.94;5049624;28;20111;-23
2021/07/22 07:57:21;;;;;;;19.70;8.18;;;;;;;26.89;37.79;100223.72;5049412;28;20087;-23
2021/07/22 07:59:47;;;;;;;14.45;6.57;;;;;;;27.05;37.43;100228.38;5049686;28;20037;-23
2021/07/22 08:02:15;;;;;;;12.50;6.70;;;;;;;26.98;37.53;100227.25;5049595;28;20412;-23
2021/07/22 08:04:41;;;;;;;11.32;6.10;;;;;;;26.74;37.09;100222.31;5047746;28;20029;-22
2021/07/22 08:07:06;;;;;;;12.73;6.10;;;;;;;26.97;37.66;100231.09;5049660;28;20040;-22
2021/07/22 08:09:32;;;;;;;11.38;6.82;;;;;;;27.14;36.78;100233.03;5049499;28;20405;-23
2021/07/22 08:11:58;;;;;;;9.77;6.40;;;;;;;27.02;37.24;100229.00;5049692;28;20036;-23
2021/07/22 08:14:24;;;;;;;8.98;6.00;;;;;;;27.57;35.11;100221.94;5049053;28;20076;-23
2021/07/22 08:16:49;;;;;;;10.52;6.10;;;;;;;27.49;36.10;100222.78;5049596;28;20028;-23
2021/07/22 08:19:15;;;;;;;11.90;5.93;;;;;;;27.36;37.10;100221.03;5049121;28;20475;-23
2021/07/22 08:21:40;;;;;;;9.82;5.55;;;;;;;27.20;36.64;100202.41;5049690;28;20370;-23
2021/07/22 08:24:06;;;;;;;8.55;5.95;;;;;;;26.89;35.91;100219.06;5049433;28;20025;-23
2021/07/22 08:26:31;;;;;;;11.88;6.80;;;;;;;27.27;36.60;100223.81;5048753;28;20040;-23
2021/07/22 08:28:57;;;;;;;9.30;5.93;;;;;;;27.43;35.06;100226.81;5049305;28;20099;-23
2021/07/22 08:31:23;;;;;;;8.45;5.60;;;;;;;27.67;35.22;100219.97;5049212;28;20033;-23
2021/07/22 08:33:50;;;;;;;8.75;5.40;;;;;;;28.09;34.32;100217.31;5048756;28;20397;-23
2021/07/22 08:36:16;;;;;;;7.85;5.55;;;;;;;28.22;33.68;100219.78;5049130;28;20477;-23
2021/07/22 08:38:41;;;;;;;7.70;5.78;;;;;;;28.41;33.57;100215.78;5048685;28;20055;-22
2021/07/22 08:41:07;;;;;;;10.50;5.40;;;;;;;28.55;34.72;100221.03;5048795;28;20556;-23
2021/07/22 08:43:32;;;;;;;9.63;5.55;;;;;;;28.05;34.52;100231.69;5049254;28;20430;-23
2021/07/22 08:45:57;;;;;;;10.23;5.78;;;;;;;28.20;34.17;100224.00;5031178;28;20048;-23
2021/07/22 08:48:23;;;;;;;8.07;5.45;;;;;;;28.25;34.31;100210.09;5048385;28;20182;-23
2021/07/22 08:50:49;;;;;;;8.25;6.25;;;;;;;27.89;35.14;100232.59;5048546;28;20497;-23
2021/07/22 08:53:14;;;;;;;9.05;5.72;;;;;;;28.20;33.21;100232.25;5048465;28;20563;-23
2021/07/22 08:55:43;;;;;;;7.85;5.82;;;;;;;28.29;33.81;100219.25;5048446;28;20094;-23
2021/07/22 08:58:09;;;;;;;9.73;4.85;;;;;;;28.64;34.11;100221.72;5030978;28;20082;-22
2021/07/22 09:00:34;;;;;;;8.63;5.40;;;;;;;28.21;33.19;100217.38;5048314;28;20036;-22
2021/07/22 09:03:00;;;;;;;7.40;4.63;;;;;;;27.70;34.12;100202.84;5030492;28;20029;-23
2021/07/22 09:05:29;;;;;;;8.43;4.70;;;;;;;27.63;34.12;100215.13;5048536;28;20025;-23
2021/07/22 09:07:54;;;;;;;7.93;5.13;;;;;;;27.79;34.01;100212.63;5048290;28;20488;-23
2021/07/22 09:10:21;;;;;;;112.40;10.82;;;;;;;27.54;35.79;100208.88;5048480;28;20095;-23
2021/07/22 09:12:47;;;;;;;14.25;5.63;;;;;;;27.27;35.29;100210.13;5048288;28;20132;-23
2021/07/22 09:15:12;;;;;;;9.25;4.68;;;;;;;27.64;34.76;100210.44;5047763;28;20033;-23
2021/07/22 09:17:38;;;;;;;8.30;5.03;;;;;;;28.13;33.93;100188.09;5048031;28;20032;-23
2021/07/22 09:20:11;;;;;;;7.60;5.32;;;;;;;28.05;33.69;100193.31;5048185;28;20036;-23
2021/07/22 09:22:41;;;;;;;10.65;4.43;;;;;;;28.29;33.38;100199.25;5030994;28;20270;-23
2021/07/22 09:25:07;;;;;;;7.45;4.82;;;;;;;28.26;32.53;100198.00;5048028;28;20108;-23
2021/07/22 09:27:41;;;;;;;8.30;4.90;;;;;;;28.42;33.07;100184.44;5048165;28;20033;-23
2021/07/22 09:30:16;;;;;;;7.10;4.88;;;;;;;27.98;33.07;100182.06;5047748;28;20044;-22
2021/07/22 09:32:44;;;;;;;7.13;4.70;;;;;;;27.94;33.05;100177.59;5047878;28;20146;-23
2021/07/22 09:35:13;;;;;;;10.00;5.10;;;;;;;28.24;33.67;100181.88;5047759;28;20867;-22
2021/07/22 09:37:41;;;;;;;6.88;4.75;;;;;;;28.11;34.39;100173.91;5047706;28;20037;-23
2021/07/22 09:40:10;;;;;;;7.80;5.13;;;;;;;28.24;32.98;100179.13;5047684;28;20033;-23
2021/07/22 09:42:48;;;;;;;7.07;4.78;;;;;;;28.82;32.94;100186.69;5047400;28;20114;-23
2021/07/22 09:45:18;;;;;;;8.65;4.68;;;;;;;29.09;31.45;100179.75;5047880;28;20203;-23
2021/07/22 09:47:47;;;;;;;5.97;4.35;;;;;;;29.29;32.04;100163.56;5047447;28;20032;-22
2021/07/22 09:50:16;;;;;;;9.18;4.75;;;;;;;29.81;30.96;100166.44;5047371;28;20049;-23
2021/07/22 09:52:43;;;;;;;24.45;6.20;;;;;;;29.10;32.87;100162.16;5047196;28;20064;-23
2021/07/22 09:55:22;;;;;;;10.27;4.40;;;;;;;29.27;31.21;100168.59;5047260;28;20055;-23
2021/07/22 09:57:52;;;;;;;7.00;4.25;;;;;;;28.99;31.13;100164.56;5029642;28;20028;-23
2021/07/22 10:00:18;;;;;;;6.72;4.22;;;;;;;28.87;31.67;100171.94;5047622;28;20405;-23
2021/07/22 10:02:44;;;;;;;7.90;4.20;;;;;;;28.98;32.35;100178.63;5047686;28;20818;-23
2021/07/22 10:05:10;;;;;;;6.82;3.85;;;;;;;28.83;31.59;100160.84;5029571;28;20036;-23
2021/07/22 10:07:37;;;;;;;6.25;3.42;;;;;;;28.91;31.22;100157.22;5013113;28;20025;-23
2021/07/22 10:10:04;;;;;;;6.30;4.05;;;;;;;28.84;30.93;100166.00;5013369;28;20029;-23
2021/07/22 10:12:30;;;;;;;7.53;4.03;;;;;;;28.63;31.77;100149.59;5046880;28;20029;-23
2021/07/22 10:14:58;;;;;;;7.18;4.10;;;;;;;28.73;31.63;100159.34;5012862;28;20040;-23
2021/07/22 10:17:30;;;;;;;7.03;4.10;;;;;;;29.31;31.08;100162.06;5046981;28;20049;-23
2021/07/22 10:19:57;;;;;;;7.65;3.80;;;;;;;29.19;31.23;100162.88;5047436;28;20029;-23
2021/07/22 10:22:23;;;;;;;6.00;3.60;;;;;;;29.07;30.09;100151.84;5047054;28;20033;-23
2021/07/22 10:24:51;;;;;;;5.78;3.30;;;;;;;28.93;31.45;100151.38;5047292;28;20033;-23
2021/07/22 10:27:17;;;;;;;5.60;3.28;;;;;;;29.19;30.98;100157.38;5028569;28;20060;-23
2021/07/22 10:29:43;;;;;;;7.47;3.78;;;;;;;28.90;32.37;100150.13;5047133;28;20029;-23
2021/07/22 10:32:09;;;;;;;5.35;3.30;;;;;;;29.10;30.98;100153.91;5013094;28;20033;-23
2021/07/22 10:34:34;;;;;;;6.53;3.63;;;;;;;29.21;31.11;100157.84;5028783;28;20182;-23
2021/07/22 10:37:00;;;;;;;5.68;3.28;;;;;;;29.49;31.12;100154.41;5012620;28;20039;-23
2021/07/22 10:39:57;;;;;;;7.40;3.42;;;;;;;29.14;32.45;100156.81;5029083;28;20475;-23
2021/07/22 10:42:40;;;;;;;5.13;3.42;;;;;;;29.89;30.02;100134.44;5046966;28;20017;-23
2021/07/22 10:45:27;;;;;;;5.88;3.35;;;;;;;30.26;29.70;100142.59;5047121;28;20103;-23
2021/07/22 10:48:03;;;;;;;7.75;3.42;;;;;;;30.52;29.52;100160.59;5047163;28;20052;-23
2021/07/22 10:50:39;;;;;;;4.82;3.17;;;;;;;30.78;28.58;100152.66;5046383;28;20049;-23
2021/07/22 10:53:05;;;;;;;5.80;3.17;;;;;;;30.51;28.70;100148.00;5047060;28;20045;-22
2021/07/22 10:55:43;;;;;;;4.38;2.72;;;;;;;30.88;27.38;100147.84;5046776;28;20291;-23
2021/07/22 10:58:23;;;;;;;4.47;2.47;;;;;;;30.70;27.16;100141.81;5047112;28;20021;-23
2021/07/22 11:00:49;;;;;;;4.35;2.92;;;;;;;30.84;27.78;100151.25;5046739;28;20029;-23
2021/07/22 11:03:33;;;;;;;9.88;3.83;;;;;;;30.33;27.15;100142.00;5046813;28;20041;-23
2021/07/22 11:05:59;;;;;;;5.68;3.13;;;;;;;30.12;28.15;100147.66;5046483;28;20025;-23
2021/07/22 11:08:25;;;;;;;5.13;3.03;;;;;;;30.17;28.96;100128.97;5046405;28;20104;-23
2021/07/22 11:11:11;;;;;;;7.07;3.28;;;;;;;30.40;28.67;100143.03;5046749;28;20182;-23
2021/07/22 11:13:36;;;;;;;5.47;3.40;;;;;;;30.21;28.02;100129.06;5046443;28;20111;-23